Time;durP1;ratioP1;P1;durP2;ratioP2;P2;SDS_P1;SDS_P2;PMS_P1;PMS_P2;Temp;Humidity;BMP_temperature;BMP_pressure;BME280_temperature;BME280_humidity;BME280_pressure;Samples;Min_cycle;Max_cycle;Signal;HPM_P1;HPM_P2
2021/03/22 00:02:17;;;;;;;27.23;4.38;;;7.90;99.90;;;;;;5011809;28;20173;-87
2021/03/22 00:04:43;;;;;;;30.05;4.80;;;7.90;99.90;;;;;;5015511;28;20211;-87
2021/03/22 00:07:11;;;;;;;43.40;5.20;;;8.00;99.90;;;;;;5011584;28;20185;-85
2021/03/22 00:09:37;;;;;;;27.60;4.22;;;8.00;99.90;;;;;;5007614;28;20173;-85
2021/03/22 00:12:04;;;;;;;20.98;4.43;;;8.00;99.90;;;;;;5024903;28;20589;-85
2021/03/22 00:14:29;;;;;;;20.48;4.03;;;7.90;99.90;;;;;;5020090;28;20239;-86
2021/03/22 00:16:58;;;;;;;25.77;4.40;;;7.80;99.90;;;;;;5014356;28;20173;-85
2021/03/22 00:19:27;;;;;;;25.85;4.72;;;7.80;99.90;;;;;;5005589;28;20184;-85
2021/03/22 00:21:56;;;;;;;40.63;4.72;;;7.80;99.90;;;;;;5014781;28;20172;-85
2021/03/22 00:24:22;;;;;;;31.17;4.77;;;7.80;99.90;;;;;;5026357;28;20199;-85
2021/03/22 00:26:48;;;;;;;36.47;6.27;;;7.80;99.90;;;;;;5028224;28;20196;-85
2021/03/22 00:29:14;;;;;;;29.27;5.35;;;7.70;99.90;;;;;;5014426;28;20267;-85
2021/03/22 00:31:40;;;;;;;33.42;6.22;;;7.70;99.90;;;;;;5014095;28;20660;-85
2021/03/22 00:34:08;;;;;;;29.02;5.28;;;7.70;99.90;;;;;;5014294;28;20208;-85
2021/03/22 00:36:35;;;;;;;32.92;5.40;;;7.70;99.90;;;;;;5003422;28;20244;-85
2021/03/22 00:39:03;;;;;;;27.40;5.13;;;7.70;99.90;;;;;;5000224;28;20177;-85
2021/03/22 00:41:29;;;;;;;26.07;5.23;;;7.60;99.90;;;;;;5014394;28;20169;-85
2021/03/22 00:43:55;;;;;;;36.58;5.90;;;7.60;99.90;;;;;;5013824;28;20680;-85
2021/03/22 00:46:21;;;;;;;29.27;5.57;;;7.70;99.90;;;;;;5014252;28;20176;-85
2021/03/22 00:48:51;;;;;;;24.33;5.80;;;7.80;99.90;;;;;;5013247;28;20660;-85
2021/03/22 00:51:17;;;;;;;27.42;4.50;;;7.90;99.90;;;;;;5014287;28;20165;-87
2021/03/22 00:53:43;;;;;;;28.40;4.75;;;8.10;99.90;;;;;;5018288;28;20207;-86
2021/03/22 00:56:11;;;;;;;20.88;4.57;;;8.00;99.90;;;;;;5024833;28;20227;-86
2021/03/22 00:58:36;;;;;;;40.35;5.85;;;8.10;99.90;;;;;;5027490;28;20189;-87
2021/03/22 01:01:04;;;;;;;29.20;4.77;;;8.10;99.90;;;;;;5011691;28;20642;-86
2021/03/22 01:03:34;;;;;;;31.30;4.97;;;8.20;99.90;;;;;;5013816;28;20200;-87
2021/03/22 01:06:03;;;;;;;38.30;6.30;;;8.30;99.90;;;;;;5017789;28;20582;-86
2021/03/22 01:08:30;;;;;;;37.78;5.63;;;8.40;99.90;;;;;;5026106;28;20203;-86
2021/03/22 01:11:12;;;;;;;24.37;4.97;;;8.50;99.90;;;;;;5039107;28;20174;-87
2021/03/22 01:13:47;;;;;;;30.03;5.77;;;8.50;99.90;;;;;;5034712;28;20180;-85
2021/03/22 01:16:13;;;;;;;22.02;4.20;;;8.50;99.90;;;;;;5022995;28;20210;-86
2021/03/22 01:18:43;;;;;;;22.45;4.47;;;8.40;99.90;;;;;;4986407;28;20185;-86
2021/03/22 01:21:12;;;;;;;33.87;5.47;;;8.30;99.90;;;;;;4993271;28;20647;-86
2021/03/22 01:23:38;;;;;;;28.20;5.30;;;8.30;99.90;;;;;;5009096;28;20212;-86
2021/03/22 01:26:10;;;;;;;31.50;6.10;;;8.30;99.90;;;;;;5041438;28;20182;-86
2021/03/22 01:28:37;;;;;;;35.40;5.47;;;8.20;99.90;;;;;;5025905;28;20204;-86
2021/03/22 01:31:03;;;;;;;32.35;5.50;;;8.10;99.90;;;;;;5029694;28;20622;-87
2021/03/22 01:33:34;;;;;;;24.08;5.30;;;8.10;99.90;;;;;;5004470;28;20180;-87
2021/03/22 01:36:07;;;;;;;35.42;6.18;;;8.00;99.90;;;;;;5018295;28;20176;-86
2021/03/22 01:38:32;;;;;;;33.40;5.60;;;8.00;99.90;;;;;;5017543;28;20307;-87
2021/03/22 01:41:33;;;;;;;25.07;6.03;;;8.00;99.90;;;;;;5017812;28;20181;-87
2021/03/22 01:44:10;;;;;;;51.20;6.90;;;8.00;99.90;;;;;;5013748;28;20208;-87
2021/03/22 01:46:43;;;;;;;34.67;5.47;;;8.00;99.90;;;;;;4999273;28;20261;-86
2021/03/22 01:49:10;;;;;;;17.83;5.17;;;8.00;99.90;;;;;;5022984;28;20172;-88
2021/03/22 01:51:36;;;;;;;29.03;6.00;;;7.90;99.90;;;;;;5028989;28;20168;-87
2021/03/22 01:54:03;;;;;;;22.87;5.50;;;7.90;99.90;;;;;;5020207;28;20652;-86
2021/03/22 01:56:37;;;;;;;21.80;5.10;;;7.80;99.90;;;;;;5017686;28;20201;-86
2021/03/22 01:59:03;;;;;;;26.57;5.50;;;7.70;99.90;;;;;;5016828;28;20184;-87
2021/03/22 02:01:29;;;;;;;31.03;5.10;;;7.60;99.90;;;;;;5027556;28;20173;-87
2021/03/22 02:03:56;;;;;;;30.00;6.67;;;7.40;99.90;;;;;;5031278;28;20220;-86
2021/03/22 02:06:22;;;;;;;44.07;6.53;;;7.40;99.90;;;;;;5010738;28;20599;-86
2021/03/22 02:08:50;;;;;;;22.13;5.17;;;7.40;99.90;;;;;;5002195;28;20324;-87
2021/03/22 02:11:30;;;;;;;26.47;5.17;;;7.40;99.90;;;;;;5005061;28;20549;-87
2021/03/22 02:13:59;;;;;;;38.20;6.17;;;7.30;99.90;;;;;;5000710;28;20219;-87
2021/03/22 02:16:37;;;;;;;30.57;6.50;;;7.20;99.90;;;;;;5017696;28;20204;-86
2021/03/22 02:19:08;;;;;;;24.23;5.90;;;7.10;99.90;;;;;;5015676;28;20176;-87
2021/03/22 02:22:12;;;;;;;27.93;6.07;;;7.20;99.90;;;;;;5016236;28;20177;-86
2021/03/22 02:25:05;;;;;;;31.77;6.20;;;7.20;99.90;;;;;;5016214;28;20691;-87
2021/03/22 02:27:53;;;;;;;34.67;5.90;;;7.30;99.90;;;;;;5016743;28;20176;-87
2021/03/22 02:30:49;;;;;;;30.83;5.70;;;7.40;99.90;;;;;;5016847;28;20238;-87
2021/03/22 02:33:27;;;;;;;36.40;6.57;;;7.50;99.90;;;;;;5017824;28;20241;-86
2021/03/22 02:36:20;;;;;;;29.23;6.57;;;7.60;99.90;;;;;;4997848;28;20196;-86
2021/03/22 02:38:52;;;;;;;41.17;7.43;;;7.70;99.90;;;;;;4996545;28;20176;-86
2021/03/22 02:41:47;;;;;;;30.27;7.60;;;7.80;99.90;;;;;;4995803;28;20177;-86
2021/03/22 02:44:28;;;;;;;23.30;6.70;;;7.90;99.90;;;;;;4996627;28;20189;-87
2021/03/22 02:47:20;;;;;;;29.37;7.20;;;7.90;99.90;;;;;;4997501;28;20189;-86
2021/03/22 02:49:47;;;;;;;22.87;6.33;;;7.80;99.90;;;;;;4997655;28;20170;-87
2021/03/22 02:52:35;;;;;;;32.40;6.50;;;7.90;99.90;;;;;;4984424;28;20185;-85
2021/03/22 02:55:25;;;;;;;31.93;7.77;;;7.90;99.90;;;;;;4997434;28;20623;-84
2021/03/22 02:57:58;;;;;;;35.23;8.23;;;8.00;99.90;;;;;;4996550;28;20196;-84
2021/03/22 03:00:32;;;;;;;27.43;6.80;;;7.90;99.90;;;;;;4997322;28;20626;-86
2021/03/22 03:03:01;;;;;;;30.43;8.80;;;8.00;99.90;;;;;;4996000;28;20162;-85
2021/03/22 03:05:29;;;;;;;30.57;7.97;;;8.00;99.90;;;;;;4996761;28;20257;-84
2021/03/22 03:08:05;;;;;;;44.30;8.67;;;8.10;99.90;;;;;;4999852;28;20181;-85
2021/03/22 03:10:31;;;;;;;34.23;10.10;;;8.10;99.90;;;;;;5015611;28;20227;-84
2021/03/22 03:12:57;;;;;;;30.80;7.83;;;8.20;99.90;;;;;;5016598;28;20173;-84
2021/03/22 03:15:23;;;;;;;33.53;8.30;;;8.10;99.90;;;;;;5016797;28;20634;-84
2021/03/22 03:17:49;;;;;;;42.63;10.43;;;8.10;99.90;;;;;;5015883;28;20180;-85
2021/03/22 03:20:19;;;;;;;33.95;9.10;;;8.20;99.90;;;;;;5015388;28;20181;-86
2021/03/22 03:22:46;;;;;;;35.57;10.63;;;8.20;99.90;;;;;;5020422;28;20228;-85
2021/03/22 03:25:13;;;;;;;23.63;8.32;;;8.10;99.90;;;;;;5026465;28;20227;-86
2021/03/22 03:27:38;;;;;;;36.13;8.80;;;8.10;99.90;;;;;;5029069;28;20181;-86
2021/03/22 03:30:15;;;;;;;40.60;10.03;;;8.10;99.90;;;;;;5015683;28;20207;-86
2021/03/22 03:32:40;;;;;;;49.37;10.43;;;8.10;99.90;;;;;;5016455;28;20179;-85
2021/03/22 03:35:09;;;;;;;32.73;8.73;;;8.10;99.90;;;;;;4998970;28;20172;-85
2021/03/22 03:37:36;;;;;;;30.15;8.63;;;8.10;99.90;;;;;;5015021;28;20188;-85
2021/03/22 03:40:09;;;;;;;39.38;10.32;;;8.10;99.90;;;;;;5000508;28;20183;-86
2021/03/22 03:42:34;;;;;;;40.63;9.30;;;8.10;99.90;;;;;;5000854;28;20221;-85
2021/03/22 03:45:00;;;;;;;41.28;10.85;;;8.20;99.90;;;;;;5020342;28;20655;-86
2021/03/22 03:47:25;;;;;;;48.93;9.87;;;8.20;99.90;;;;;;5012569;28;20201;-85
2021/03/22 03:49:51;;;;;;;31.93;9.57;;;8.30;99.90;;;;;;5011154;28;20198;-86
2021/03/22 03:52:17;;;;;;;31.33;10.15;;;8.20;99.90;;;;;;5010263;28;20563;-85
2021/03/22 03:54:45;;;;;;;43.73;9.93;;;8.10;99.90;;;;;;4993595;28;20173;-85
2021/03/22 03:57:11;;;;;;;35.10;10.67;;;8.10;99.90;;;;;;5010224;28;20669;-85
2021/03/22 03:59:36;;;;;;;29.42;9.60;;;8.10;99.90;;;;;;4994196;28;20185;-85
2021/03/22 04:09:47;;;;;;;28.63;9.55;;;8.10;99.90;;;;;;5029869;28;20595;-75
2021/03/22 04:12:13;;;;;;;44.35;9.88;;;8.10;99.90;;;;;;5033606;28;20206;-74
2021/03/22 04:14:38;;;;;;;40.08;10.07;;;8.20;99.90;;;;;;5015565;28;20259;-76
2021/03/22 04:17:04;;;;;;;34.03;9.25;;;8.20;99.90;;;;;;5033470;28;20172;-75
2021/03/22 04:19:30;;;;;;;25.15;8.90;;;8.10;99.90;;;;;;5015894;28;20647;-74
2021/03/22 04:21:55;;;;;;;34.70;10.23;;;8.10;99.90;;;;;;5014981;28;20186;-74
2021/03/22 04:24:21;;;;;;;29.65;9.65;;;8.10;99.90;;;;;;5015835;28;20557;-74
2021/03/22 04:26:47;;;;;;;43.83;10.23;;;8.10;99.90;;;;;;5016088;28;20238;-75
2021/03/22 04:29:14;;;;;;;41.33;10.27;;;8.20;99.90;;;;;;5015677;28;20224;-74
2021/03/22 04:31:42;;;;;;;37.10;9.25;;;8.20;99.90;;;;;;5015679;28;20176;-75
2021/03/22 04:34:08;;;;;;;40.20;10.65;;;8.30;99.90;;;;;;5033382;28;20214;-74
2021/03/22 04:36:36;;;;;;;29.15;10.65;;;8.30;99.90;;;;;;5033167;28;20664;-74
2021/03/22 04:39:05;;;;;;;30.83;9.10;;;8.30;99.90;;;;;;5033198;28;20549;-74
2021/03/22 04:41:31;;;;;;;35.15;10.85;;;8.30;99.90;;;;;;5015580;28;20648;-75
2021/03/22 04:43:56;;;;;;;30.13;10.38;;;8.30;99.90;;;;;;5015607;28;20196;-75
2021/03/22 04:46:23;;;;;;;30.10;9.60;;;8.30;99.90;;;;;;5033431;28;20180;-74
2021/03/22 04:48:49;;;;;;;42.80;10.15;;;8.30;99.90;;;;;;5033541;28;20172;-74
2021/03/22 04:51:15;;;;;;;33.20;9.73;;;8.40;99.90;;;;;;5015385;28;20727;-74
2021/03/22 04:53:42;;;;;;;32.63;9.27;;;8.40;99.90;;;;;;5033133;28;20208;-75
2021/03/22 04:56:08;;;;;;;32.88;9.75;;;8.20;99.90;;;;;;5033200;28;20210;-75
2021/03/22 04:58:35;;;;;;;29.17;9.40;;;8.20;99.90;;;;;;5015195;28;20226;-75
2021/03/22 05:01:02;;;;;;;30.58;9.63;;;8.10;99.90;;;;;;5015505;28;20168;-74
2021/03/22 05:03:28;;;;;;;31.52;10.00;;;8.00;99.90;;;;;;5015058;28;20212;-74
2021/03/22 05:05:54;;;;;;;27.75;9.27;;;8.10;99.90;;;;;;5037250;28;20178;-76
2021/03/22 05:08:21;;;;;;;37.88;10.02;;;8.10;99.90;;;;;;5037160;28;20188;-75
2021/03/22 05:10:48;;;;;;;25.50;9.02;;;8.20;99.90;;;;;;5019113;28;20187;-75
2021/03/22 05:13:16;;;;;;;35.40;9.40;;;8.20;99.90;;;;;;5036893;28;20255;-75
2021/03/22 05:15:44;;;;;;;29.07;8.83;;;8.30;99.90;;;;;;5019377;28;20168;-74
2021/03/22 05:18:12;;;;;;;27.40;9.80;;;8.30;99.90;;;;;;5019216;28;20613;-75
2021/03/22 05:20:45;;;;;;;33.10;10.27;;;8.40;99.90;;;;;;5036942;28;20190;-75
2021/03/22 05:23:17;;;;;;;21.23;8.77;;;8.40;99.90;;;;;;5019065;28;20259;-75
2021/03/22 05:25:43;;;;;;;33.38;9.27;;;8.40;99.90;;;;;;5036618;28;20172;-75
2021/03/22 05:28:10;;;;;;;26.33;8.85;;;8.30;99.90;;;;;;5036939;28;20243;-74
2021/03/22 05:30:37;;;;;;;36.05;9.68;;;8.40;99.90;;;;;;5036911;28;20172;-75
2021/03/22 05:33:06;;;;;;;34.87;9.87;;;8.40;99.90;;;;;;5019012;28;20759;-75
2021/03/22 05:35:33;;;;;;;22.20;8.80;;;8.50;99.90;;;;;;5036701;28;20178;-75
2021/03/22 05:37:59;;;;;;;35.92;9.77;;;8.60;99.90;;;;;;5036451;28;20229;-75
2021/03/22 05:40:47;;;;;;;30.75;9.35;;;8.50;99.90;;;;;;5018509;28;20207;-75
2021/03/22 05:43:49;;;;;;;25.23;8.13;;;8.60;99.90;;;;;;5015601;28;20177;-75
2021/03/22 05:46:23;;;;;;;22.08;8.38;;;8.70;99.90;;;;;;4998981;28;20338;-74
2021/03/22 05:49:11;;;;;;;26.27;8.20;;;8.60;99.90;;;;;;5015543;28;20175;-74
2021/03/22 05:51:42;;;;;;;31.48;10.20;;;8.60;99.90;;;;;;5016652;28;20165;-75
2021/03/22 05:54:52;;;;;;;30.38;8.23;;;8.50;99.90;;;;;;5015287;28;20177;-75
2021/03/22 05:57:52;;;;;;;33.17;9.25;;;8.40;99.90;;;;;;5016706;28;20165;-76
2021/03/22 06:00:26;;;;;;;35.42;9.30;;;8.50;99.90;;;;;;5015082;28;20188;-74
2021/03/22 06:02:57;;;;;;;19.67;9.02;;;8.50;99.90;;;;;;5020040;28;20170;-74
2021/03/22 06:05:50;;;;;;;26.98;9.57;;;8.70;99.90;;;;;;5035908;28;20711;-75
2021/03/22 06:08:29;;;;;;;26.92;8.73;;;8.70;99.90;;;;;;5018784;28;20187;-75
2021/03/22 06:10:56;;;;;;;22.48;8.70;;;8.70;99.90;;;;;;5036080;28;20191;-75
2021/03/22 06:13:47;;;;;;;30.60;9.20;;;8.60;99.90;;;;;;5035785;28;20255;-75
2021/03/22 06:16:28;;;;;;;26.73;8.70;;;8.60;99.90;;;;;;5033528;28;20199;-75
2021/03/22 06:19:04;;;;;;;28.67;8.43;;;8.70;99.90;;;;;;5018044;28;20168;-74
2021/03/22 06:21:33;;;;;;;28.08;8.65;;;8.70;99.90;;;;;;5035802;28;20242;-74
2021/03/22 06:23:59;;;;;;;27.38;10.23;;;8.90;99.90;;;;;;5035516;28;20195;-75
2021/03/22 06:26:34;;;;;;;31.88;8.73;;;8.90;99.90;;;;;;5018014;28;20538;-74
2021/03/22 06:29:06;;;;;;;30.52;9.05;;;8.90;99.90;;;;;;5035951;28;20581;-74
2021/03/22 06:31:33;;;;;;;23.48;8.90;;;8.90;99.90;;;;;;5017855;28;20237;-75
2021/03/22 06:34:05;;;;;;;31.55;8.43;;;8.90;99.90;;;;;;5017783;28;20179;-75
2021/03/22 06:36:31;;;;;;;32.67;9.07;;;8.90;99.90;;;;;;5017513;28;20175;-75
2021/03/22 06:39:00;;;;;;;36.00;9.23;;;9.00;99.90;;;;;;5017749;28;20234;-76
2021/03/22 06:41:34;;;;;;;21.85;7.18;;;9.10;99.90;;;;;;5017160;28;20326;-75
2021/03/22 06:44:24;;;;;;;25.80;8.40;;;9.10;99.90;;;;;;5017624;28;20195;-75
2021/03/22 06:47:21;;;;;;;20.38;7.15;;;9.00;99.90;;;;;;5007261;28;20219;-75
2021/03/22 06:49:53;;;;;;;29.17;7.70;;;9.10;99.90;;;;;;5034752;28;20196;-75
2021/03/22 06:52:20;;;;;;;33.92;9.23;;;9.10;99.90;;;;;;5014659;28;20226;-74
2021/03/22 06:54:54;;;;;;;28.00;7.85;;;9.20;99.90;;;;;;5034780;28;20546;-74
2021/03/22 06:57:26;;;;;;;20.48;8.10;;;9.20;99.90;;;;;;5000823;28;20171;-74
2021/03/22 07:00:10;;;;;;;26.15;7.47;;;9.10;99.90;;;;;;5035182;28;20160;-75
2021/03/22 07:02:48;;;;;;;27.95;8.20;;;9.20;99.90;;;;;;5034949;28;20184;-75
2021/03/22 07:05:28;;;;;;;37.88;8.07;;;9.20;99.90;;;;;;5035172;28;20281;-75
2021/03/22 07:08:06;;;;;;;22.83;8.27;;;9.20;99.90;;;;;;5015012;28;20172;-75
2021/03/22 07:10:42;;;;;;;38.30;8.60;;;9.30;99.90;;;;;;5014991;28;20189;-75
2021/03/22 07:13:26;;;;;;;25.27;7.60;;;9.30;99.90;;;;;;5015058;28;20164;-75
2021/03/22 07:15:57;;;;;;;17.05;7.13;;;9.40;99.90;;;;;;4997500;28;20643;-74
2021/03/22 07:18:33;;;;;;;26.30;8.05;;;9.40;99.90;;;;;;5015173;28;20172;-75
2021/03/22 07:21:19;;;;;;;26.52;8.15;;;9.50;99.90;;;;;;5014862;28;20526;-75
2021/03/22 07:23:55;;;;;;;30.02;8.10;;;9.60;99.90;;;;;;5008424;28;20281;-75
2021/03/22 07:26:21;;;;;;;19.45;7.00;;;9.70;99.90;;;;;;5034414;28;20643;-74
2021/03/22 07:29:02;;;;;;;20.95;7.80;;;9.70;99.90;;;;;;5016512;28;20176;-74
2021/03/22 07:31:55;;;;;;;29.85;7.70;;;9.60;99.90;;;;;;5034438;28;20620;-74
2021/03/22 07:34:42;;;;;;;24.27;7.45;;;9.60;99.90;;;;;;5016770;28;20176;-74
2021/03/22 07:37:37;;;;;;;24.17;7.20;;;9.60;99.90;;;;;;5034289;28;20160;-74
2021/03/22 07:40:29;;;;;;;24.85;7.65;;;9.70;99.90;;;;;;5034249;28;20184;-75
2021/03/22 07:43:16;;;;;;;19.20;7.47;;;9.90;99.90;;;;;;5016569;28;20171;-74
2021/03/22 07:45:50;;;;;;;19.88;7.72;;;10.00;99.90;;;;;;5034346;28;20525;-75
2021/03/22 07:48:52;;;;;;;17.73;7.25;;;9.90;99.90;;;;;;5016470;28;20291;-74
2021/03/22 07:52:00;;;;;;;22.52;7.35;;;10.10;99.90;;;;;;5033934;28;20167;-76
2021/03/22 07:54:59;;;;;;;20.83;8.02;;;10.30;99.90;;;;;;5033867;28;20184;-75
2021/03/22 07:57:57;;;;;;;25.05;7.20;;;10.60;99.90;;;;;;5016082;28;20184;-74
2021/03/22 08:00:29;;;;;;;18.38;6.10;;;10.70;99.90;;;;;;4996550;28;20628;-75
2021/03/22 08:03:22;;;;;;;26.27;7.40;;;10.90;99.90;;;;;;5033881;28;20175;-74
2021/03/22 08:06:23;;;;;;;22.38;6.88;;;11.00;99.90;;;;;;5033688;28;20184;-74
2021/03/22 08:09:09;;;;;;;16.48;6.00;;;11.10;99.90;;;;;;5033896;28;20520;-74
2021/03/22 08:11:54;;;;;;;24.23;6.50;;;11.30;99.90;;;;;;5032508;28;20632;-75
2021/03/22 08:14:42;;;;;;;27.60;7.40;;;11.50;99.90;;;;;;5033529;28;20695;-74
2021/03/22 08:17:32;;;;;;;12.75;6.18;;;11.70;99.90;;;;;;5016509;28;20544;-74
2021/03/22 08:20:19;;;;;;;22.48;6.40;;;11.80;99.90;;;;;;5015887;28;20570;-75
2021/03/22 08:23:16;;;;;;;22.13;7.63;;;11.60;99.90;;;;;;5015640;28;20175;-75
2021/03/22 08:25:47;;;;;;;24.08;8.50;;;11.60;99.90;;;;;;5015936;28;20675;-75
2021/03/22 08:28:40;;;;;;;18.60;7.05;;;11.70;99.90;;;;;;5033372;28;20200;-75
2021/03/22 08:31:22;;;;;;;17.33;6.88;;;11.80;99.90;;;;;;5014907;28;20184;-74
2021/03/22 08:34:06;;;;;;;19.13;7.05;;;11.90;99.90;;;;;;5033297;28;20179;-74
2021/03/22 08:36:49;;;;;;;20.75;6.68;;;11.70;99.90;;;;;;5011259;28;20263;-75
2021/03/22 08:39:26;;;;;;;15.15;6.70;;;11.80;99.90;;;;;;5012908;28;20169;-75
2021/03/22 08:42:26;;;;;;;23.00;7.57;;;11.70;99.90;;;;;;5027876;28;20195;-74
2021/03/22 08:45:14;;;;;;;23.05;8.05;;;11.60;99.90;;;;;;5016180;28;20299;-75
2021/03/22 08:48:08;;;;;;;19.38;7.72;;;11.40;99.90;;;;;;5032810;28;20207;-75
2021/03/22 08:50:36;;;;;;;21.30;7.82;;;11.30;99.90;;;;;;5033407;28;20168;-75
2021/03/22 08:53:10;;;;;;;19.50;7.95;;;11.30;99.90;;;;;;5015641;28;20172;-75
2021/03/22 08:55:56;;;;;;;21.15;8.15;;;11.10;99.90;;;;;;5015359;28;20221;-75
2021/03/22 08:58:25;;;;;;;15.10;6.57;;;11.10;99.90;;;;;;5015357;28;20524;-74
2021/03/22 09:00:53;;;;;;;19.58;7.68;;;11.00;99.90;;;;;;5033113;28;20194;-74
2021/03/22 09:03:32;;;;;;;19.30;6.93;;;10.90;99.90;;;;;;5033090;28;20164;-75
2021/03/22 09:06:27;;;;;;;22.00;7.45;;;11.00;99.90;;;;;;5015121;28;20172;-74
2021/03/22 09:09:02;;;;;;;20.83;7.45;;;11.10;99.90;;;;;;5033100;28;20180;-75
2021/03/22 09:11:40;;;;;;;19.90;7.60;;;11.30;99.90;;;;;;5032646;28;20179;-74
2021/03/22 09:14:09;;;;;;;13.80;6.63;;;11.30;99.90;;;;;;5015532;28;20179;-74
2021/03/22 09:16:53;;;;;;;21.10;8.23;;;11.10;99.90;;;;;;5014987;28;20164;-75
2021/03/22 09:19:21;;;;;;;25.30;8.55;;;11.30;99.90;;;;;;5033185;28;20255;-74
2021/03/22 09:22:07;;;;;;;16.30;7.88;;;11.50;99.90;;;;;;5015365;28;20168;-74
2021/03/22 09:24:39;;;;;;;20.67;7.47;;;11.70;99.90;;;;;;5014443;28;20249;-75
2021/03/22 09:27:16;;;;;;;23.92;8.88;;;11.80;99.90;;;;;;5032807;28;20172;-75
2021/03/22 09:30:31;;;;;;;12.40;7.13;;;12.00;99.90;;;;;;5032363;28;20243;-75
2021/03/22 09:32:57;;;;;;;23.33;8.73;;;12.10;99.90;;;;;;4973173;28;20273;-74
2021/03/22 09:35:29;;;;;;;17.85;8.93;;;11.90;99.90;;;;;;5032768;28;20604;-74
2021/03/22 09:38:03;;;;;;;26.67;8.50;;;12.10;99.90;;;;;;5032554;28;20621;-75
2021/03/22 09:40:29;;;;;;;13.95;8.07;;;12.30;99.90;;;;;;5032675;28;20287;-75
2021/03/22 09:43:11;;;;;;;16.08;7.57;;;12.30;99.90;;;;;;5032467;28;20258;-75
2021/03/22 09:45:52;;;;;;;19.42;7.88;;;12.50;99.90;;;;;;5032421;28;20172;-74
2021/03/22 09:48:27;;;;;;;22.98;8.40;;;12.50;99.90;;;;;;5032526;28;20255;-75
2021/03/22 09:51:15;;;;;;;19.73;8.48;;;12.60;99.90;;;;;;5034488;28;20175;-75
2021/03/22 09:53:52;;;;;;;22.67;8.15;;;12.30;99.90;;;;;;5017578;28;20180;-75
2021/03/22 09:56:23;;;;;;;19.02;9.05;;;12.10;99.90;;;;;;5028269;28;20179;-75
2021/03/22 09:58:50;;;;;;;28.75;9.77;;;11.80;99.90;;;;;;5018631;28;20167;-74
2021/03/22 10:01:31;;;;;;;17.52;7.68;;;11.60;99.90;;;;;;5036070;28;20200;-74
2021/03/22 10:04:20;;;;;;;26.25;9.32;;;11.80;99.90;;;;;;5018301;28;20195;-74
2021/03/22 10:07:04;;;;;;;16.92;7.18;;;11.80;99.90;;;;;;5018378;28;20191;-74
2021/03/22 10:09:45;;;;;;;17.48;7.35;;;11.60;99.90;;;;;;5018274;28;20660;-74
2021/03/22 10:12:17;;;;;;;16.60;7.18;;;11.10;99.90;;;;;;5036096;28;20176;-74
2021/03/22 10:14:47;;;;;;;19.65;7.50;;;11.00;99.90;;;;;;5035958;28;20577;-76
2021/03/22 10:17:29;;;;;;;25.00;6.80;;;11.20;99.90;;;;;;5035848;28;20179;-75
2021/03/22 10:20:05;;;;;;;17.08;7.28;;;11.30;99.90;;;;;;5018322;28;20172;-76
2021/03/22 10:22:32;;;;;;;8.82;5.40;;;11.40;99.90;;;;;;5034022;28;20172;-76
2021/03/22 10:25:19;;;;;;;14.30;5.07;;;11.60;99.90;;;;;;4998053;28;20204;-74
2021/03/22 10:27:46;;;;;;;17.08;6.07;;;11.50;99.90;;;;;;5014569;28;20176;-74
2021/03/22 10:30:20;;;;;;;16.85;5.15;;;11.30;99.90;;;;;;5035722;28;20537;-75
2021/03/22 10:32:55;;;;;;;13.32;5.20;;;11.50;99.90;;;;;;5035611;28;20514;-74
2021/03/22 10:35:21;;;;;;;13.10;3.83;;;11.40;99.90;;;;;;5035703;28;20165;-74
2021/03/22 10:37:53;;;;;;;10.73;4.63;;;11.30;99.90;;;;;;5001499;28;20172;-75
2021/03/22 10:40:37;;;;;;;22.20;5.28;;;11.20;99.90;;;;;;5017547;28;20183;-74
2021/03/22 10:43:04;;;;;;;14.52;4.43;;;11.20;99.90;;;;;;5035540;28;20692;-74
2021/03/22 10:45:43;;;;;;;19.80;4.57;;;11.30;99.90;;;;;;5017602;28;20196;-74
2021/03/22 10:48:23;;;;;;;9.35;4.43;;;11.50;99.90;;;;;;5017451;28;20219;-74
2021/03/22 10:51:07;;;;;;;10.05;4.25;;;11.60;99.90;;;;;;5017506;28;20257;-75
2021/03/22 10:53:33;;;;;;;17.33;5.03;;;11.80;99.90;;;;;;5017387;28;20174;-75
2021/03/22 10:56:39;;;;;;;17.38;4.75;;;12.00;99.90;;;;;;5000719;28;20175;-75
2021/03/22 10:59:21;;;;;;;11.10;3.90;;;12.10;99.90;;;;;;5035040;28;20574;-74
2021/03/22 11:01:49;;;;;;;9.73;3.50;;;12.30;99.90;;;;;;5016386;28;20537;-75
2021/03/22 11:04:43;;;;;;;15.25;3.58;;;12.80;99.90;;;;;;5035016;28;20664;-74
2021/03/22 11:07:19;;;;;;;11.60;4.07;;;13.70;99.90;;;;;;5034766;28;20176;-74
2021/03/22 11:10:00;;;;;;;15.77;4.38;;;14.40;99.90;;;;;;5034854;28;20571;-74
2021/03/22 11:12:27;;;;;;;8.68;3.83;;;14.50;99.90;;;;;;5035069;28;20168;-74
2021/03/22 11:14:58;;;;;;;11.30;4.25;;;13.70;99.90;;;;;;5015626;28;20211;-74
2021/03/22 11:17:26;;;;;;;15.75;4.10;;;13.50;99.90;;;;;;5033527;28;20222;-74
2021/03/22 11:19:53;;;;;;;10.77;4.00;;;13.20;99.90;;;;;;5033681;28;20175;-76
2021/03/22 11:22:24;;;;;;;11.38;3.47;;;12.80;99.90;;;;;;5015413;28;20187;-74
2021/03/22 11:24:53;;;;;;;15.55;3.97;;;12.90;99.90;;;;;;5015556;28;20196;-74
2021/03/22 11:27:19;;;;;;;10.35;3.92;;;12.80;99.90;;;;;;5033490;28;20181;-75
2021/03/22 11:29:50;;;;;;;9.57;4.10;;;13.00;99.90;;;;;;5033396;28;20579;-75
2021/03/22 11:32:21;;;;;;;10.70;4.63;;;13.20;99.90;;;;;;5035606;28;20176;-74
2021/03/22 11:34:47;;;;;;;10.43;4.22;;;13.30;99.90;;;;;;5013798;28;20171;-75
2021/03/22 11:37:21;;;;;;;9.63;4.13;;;13.10;99.90;;;;;;5013302;28;20199;-74
2021/03/22 11:39:55;;;;;;;7.13;3.72;;;12.80;99.90;;;;;;5037033;28;20215;-74
2021/03/22 11:42:31;;;;;;;7.93;4.13;;;12.70;99.90;;;;;;5032066;28;20624;-76
2021/03/22 11:44:59;;;;;;;14.75;4.80;;;12.50;99.90;;;;;;5032900;28;20199;-74
2021/03/22 11:47:45;;;;;;;12.13;4.20;;;12.30;99.90;;;;;;5015557;28;20234;-75
2021/03/22 11:50:44;;;;;;;13.10;4.60;;;12.30;99.90;;;;;;5014969;28;20168;-75
2021/03/22 11:53:13;;;;;;;13.55;4.88;;;12.40;99.90;;;;;;5014298;28;20178;-75
2021/03/22 11:55:55;;;;;;;15.20;4.70;;;12.30;99.90;;;;;;5014670;28;20182;-75
2021/03/22 11:58:39;;;;;;;17.27;4.68;;;11.90;99.90;;;;;;5032985;28;20195;-74
2021/03/22 12:01:14;;;;;;;12.45;4.00;;;11.40;99.90;;;;;;5031810;28;20195;-76
2021/03/22 12:03:40;;;;;;;10.32;3.78;;;11.00;99.90;;;;;;5032373;28;20195;-75
2021/03/22 12:06:12;;;;;;;11.88;3.40;;;10.70;99.90;;;;;;5015120;28;20187;-75
2021/03/22 12:08:40;;;;;;;6.03;2.75;;;10.50;99.90;;;;;;5038132;28;20176;-74
2021/03/22 12:11:19;;;;;;;7.70;2.08;;;10.30;99.90;;;;;;5012273;28;20180;-75
2021/03/22 12:13:50;;;;;;;5.85;2.63;;;10.20;99.90;;;;;;5013716;28;20180;-75
2021/03/22 12:16:23;;;;;;;4.03;2.15;;;10.10;99.90;;;;;;5032348;28;20180;-74
2021/03/22 12:18:51;;;;;;;6.90;2.88;;;10.10;99.90;;;;;;5032653;28;20183;-74
2021/03/22 12:21:17;;;;;;;12.48;2.90;;;10.20;99.90;;;;;;5032410;28;20628;-75
2021/03/22 12:23:43;;;;;;;8.18;2.42;;;10.40;99.90;;;;;;5013346;28;20192;-75
2021/03/22 12:26:17;;;;;;;15.77;2.90;;;10.40;99.90;;;;;;5032273;28;20183;-76
2021/03/22 12:29:00;;;;;;;5.90;2.65;;;10.80;99.90;;;;;;5032080;28;20264;-75
2021/03/22 12:31:25;;;;;;;8.70;2.70;;;11.20;99.90;;;;;;5032487;28;20192;-74
2021/03/22 12:33:51;;;;;;;17.05;3.78;;;11.50;99.90;;;;;;5014755;28;20569;-75
2021/03/22 12:36:18;;;;;;;8.20;2.70;;;11.90;99.90;;;;;;5033471;28;20168;-74
2021/03/22 12:38:43;;;;;;;7.22;2.95;;;12.30;99.90;;;;;;5015767;28;20591;-74
2021/03/22 12:41:15;;;;;;;11.95;2.40;;;12.60;99.90;;;;;;4998689;28;20184;-74
2021/03/22 12:43:41;;;;;;;7.80;2.70;;;12.80;99.90;;;;;;5033383;28;20192;-74
2021/03/22 12:46:07;;;;;;;8.63;2.95;;;12.70;99.90;;;;;;5015687;28;20704;-74
2021/03/22 12:48:32;;;;;;;9.38;2.60;;;12.70;99.90;;;;;;5015708;28;20172;-75
2021/03/22 12:50:58;;;;;;;5.32;2.95;;;12.80;99.90;;;;;;5015673;28;20555;-74
2021/03/22 12:53:24;;;;;;;11.23;3.03;;;12.90;99.90;;;;;;5015542;28;20557;-74
2021/03/22 12:55:50;;;;;;;5.50;2.90;;;12.80;99.90;;;;;;5033375;28;20193;-75
2021/03/22 12:58:19;;;;;;;9.55;2.65;;;13.10;99.90;;;;;;5033220;28;20670;-74
2021/03/22 13:00:47;;;;;;;9.63;2.40;;;13.30;99.90;;;;;;5033245;28;20168;-75
2021/03/22 13:03:19;;;;;;;16.00;3.47;;;13.40;99.90;;;;;;5015598;28;20624;-75
2021/03/22 13:05:45;;;;;;;15.85;3.28;;;13.40;99.90;;;;;;5015110;28;20706;-74
2021/03/22 13:08:10;;;;;;;17.88;2.95;;;13.10;99.90;;;;;;5015322;28;20172;-75
2021/03/22 13:10:36;;;;;;;8.40;2.78;;;12.80;99.90;;;;;;5014821;28;20187;-74
2021/03/22 13:13:04;;;;;;;10.27;2.42;;;12.30;99.90;;;;;;5015413;28;20708;-75
2021/03/22 13:15:46;;;;;;;9.07;3.13;;;12.00;99.90;;;;;;5033074;28;20625;-74
2021/03/22 13:18:26;;;;;;;7.90;3.03;;;11.60;99.90;;;;;;5032981;28;20161;-74
2021/03/22 13:21:01;;;;;;;11.15;2.72;;;11.50;99.90;;;;;;5033192;28;20620;-74
2021/03/22 13:23:28;;;;;;;9.80;2.85;;;11.40;99.90;;;;;;5015134;28;20577;-74
2021/03/22 13:25:55;;;;;;;8.02;2.90;;;11.10;99.90;;;;;;5017484;28;20180;-75
2021/03/22 13:28:39;;;;;;;10.98;2.63;;;10.90;99.90;;;;;;5037271;28;20168;-74